Aspen Hill, Maryland
Current Conditions -  °F | °C
As of 4:35 PM on Sunday 23 Nov 2014 (Local Time) from KGAI Reporting Station
Clear Clear  
Wind Chill: 52°   Ceiling: Unl
Heat Index: 52°   Visibility: 10mi
Dew Point: 28°   Wind: 6mph
Humidity: 41%   Direction: 110°ESE
Pressure: 30.1"   Gusts: NA
Location:  39.08°N, 77.09°W
Report Text: KGAI 232135Z 11005KT 10SM CLR 11/M02 A3010 RMK AO1
Loading
Personal Weather Stations






























Interactive Weather Map New forecast layout! Learn more

10-Day Weather Forecast

Advertisements
Track Severe Weather on mobile